createdAt,value
2018-07-14T00:00:58.968Z,17.30
2018-07-14T00:01:58.617Z,17.33
2018-07-14T00:02:58.529Z,17.33
2018-07-14T00:03:58.437Z,17.27
2018-07-14T00:04:58.330Z,17.24
2018-07-14T00:05:58.243Z,17.23
2018-07-14T00:06:58.135Z,17.33
2018-07-14T00:07:58.045Z,17.26
2018-07-14T00:08:57.945Z,17.23
2018-07-14T00:09:57.886Z,17.16
2018-07-14T00:10:57.760Z,17.22
2018-07-14T00:11:57.657Z,17.20
2018-07-14T00:12:57.571Z,17.22
2018-07-14T00:13:57.470Z,17.22
2018-07-14T00:14:57.374Z,17.19
2018-07-14T00:15:57.287Z,17.16
2018-07-14T00:16:57.177Z,17.16
2018-07-14T00:17:57.085Z,17.16
2018-07-14T00:18:56.989Z,17.16
2018-07-14T00:19:56.898Z,17.04
2018-07-14T00:20:56.790Z,17.19
2018-07-14T00:21:56.699Z,17.15
2018-07-14T00:22:56.596Z,17.08
2018-07-14T00:23:56.504Z,17.09
2018-07-14T00:24:56.417Z,17.04
2018-07-14T00:25:56.329Z,17.08
2018-07-14T00:26:56.220Z,17.11
2018-07-14T00:27:56.117Z,17.02
2018-07-14T00:28:56.030Z,17.04
2018-07-14T00:29:55.927Z,17.01
2018-07-14T00:30:56.134Z,16.91
2018-07-14T00:31:55.743Z,16.93
2018-07-14T00:32:55.635Z,16.97
2018-07-14T00:33:55.547Z,16.96
2018-07-14T00:34:55.451Z,16.99
2018-07-14T00:35:55.356Z,16.97
2018-07-14T00:36:55.248Z,16.89
2018-07-14T00:37:55.157Z,17.04
2018-07-14T00:38:55.068Z,17.01
2018-07-14T00:39:54.964Z,17.01
2018-07-14T00:40:55.128Z,16.97
2018-07-14T00:41:54.775Z,17.01
2018-07-14T00:42:54.677Z,16.89
2018-07-14T00:43:54.575Z,16.93
2018-07-14T00:44:54.488Z,16.99
2018-07-14T00:45:54.396Z,16.93
2018-07-14T00:46:54.295Z,16.90
2018-07-14T00:47:54.207Z,16.96
2018-07-14T00:48:54.099Z,16.87
2018-07-14T00:49:54.006Z,16.86
2018-07-14T00:50:53.908Z,16.89
2018-07-14T00:51:53.817Z,16.84
2018-07-14T00:52:53.709Z,16.81
2018-07-14T00:53:53.618Z,16.83
2018-07-14T00:54:53.527Z,16.78
2018-07-14T00:55:53.423Z,16.69
2018-07-14T00:56:53.336Z,16.68
2018-07-14T00:57:53.233Z,16.78
2018-07-14T00:58:53.140Z,16.71
2018-07-14T00:59:53.038Z,16.75
2018-07-14T01:00:52.950Z,16.75
2018-07-14T01:01:52.847Z,16.78
2018-07-14T01:02:52.754Z,16.71
2018-07-14T01:03:52.662Z,16.72
2018-07-14T01:04:52.555Z,16.71
2018-07-14T01:05:52.464Z,16.75
2018-07-14T01:06:52.365Z,16.74
2018-07-14T01:07:52.274Z,16.68
2018-07-14T01:08:52.166Z,16.72
2018-07-14T01:09:52.077Z,16.69
2018-07-14T01:10:51.976Z,16.68
2018-07-14T01:11:51.887Z,16.72
2018-07-14T01:12:51.790Z,16.72
2018-07-14T01:13:51.695Z,16.68
2018-07-14T01:14:51.597Z,16.74
2018-07-14T01:15:51.495Z,16.71
2018-07-14T01:16:51.408Z,16.71
2018-07-14T01:17:51.394Z,16.69
2018-07-14T01:18:51.215Z,16.71
2018-07-14T01:19:51.112Z,16.72
2018-07-14T01:20:51.018Z,16.74
2018-07-14T01:21:50.915Z,16.71
2018-07-14T01:22:50.825Z,16.72
2018-07-14T01:23:50.735Z,16.75
2018-07-14T01:24:50.628Z,16.74
2018-07-14T01:25:50.540Z,16.68
2018-07-14T01:26:50.435Z,16.66
2018-07-14T01:27:50.344Z,16.68
2018-07-14T01:28:50.245Z,16.71
2018-07-14T01:29:50.153Z,16.64
2018-07-14T01:30:50.048Z,16.66
2018-07-14T01:31:49.955Z,16.72
2018-07-14T01:32:49.855Z,16.72
2018-07-14T01:33:49.771Z,16.75
2018-07-14T01:34:49.676Z,16.71
2018-07-14T01:35:49.571Z,16.71
2018-07-14T01:36:49.476Z,16.78
2018-07-14T01:37:49.373Z,16.78
2018-07-14T01:38:49.287Z,16.74
2018-07-14T01:39:49.184Z,16.69
2018-07-14T01:40:49.088Z,16.74
2018-07-14T01:41:48.985Z,16.71
2018-07-14T01:42:48.893Z,16.81
2018-07-14T01:43:48.789Z,16.81
2018-07-14T01:44:48.701Z,16.78
2018-07-14T01:45:48.599Z,16.84
2018-07-14T01:46:48.507Z,16.71
2018-07-14T01:47:48.415Z,16.69
2018-07-14T01:48:48.317Z,16.69
2018-07-14T01:49:48.225Z,16.66
2018-07-14T01:50:48.120Z,16.71
2018-07-14T01:51:48.028Z,16.74
2018-07-14T01:52:47.921Z,16.75
2018-07-14T01:53:47.832Z,16.76
2018-07-14T01:54:47.736Z,16.74
2018-07-14T01:55:47.653Z,16.72
2018-07-14T01:56:47.533Z,16.71
2018-07-14T01:57:47.447Z,16.74
2018-07-14T01:58:47.353Z,16.74
2018-07-14T01:59:47.250Z,16.72
2018-07-14T02:00:47.164Z,16.76
2018-07-14T02:01:47.061Z,16.75
2018-07-14T02:02:46.965Z,16.74
2018-07-14T02:03:46.861Z,16.78
2018-07-14T02:04:46.773Z,16.72
2018-07-14T02:05:46.674Z,16.64
2018-07-14T02:06:46.582Z,16.61
2018-07-14T02:07:46.478Z,16.64
2018-07-14T02:08:46.384Z,16.58
2018-07-14T02:09:46.280Z,16.68
2018-07-14T02:10:46.194Z,16.68
2018-07-14T02:11:46.102Z,16.61
2018-07-14T02:12:45.995Z,16.61
2018-07-14T02:13:45.904Z,16.71
2018-07-14T02:14:45.798Z,16.57
2018-07-14T02:15:45.708Z,16.53
2018-07-14T02:16:45.608Z,16.64
2018-07-14T02:17:45.517Z,16.51
2018-07-14T02:18:45.416Z,16.61
2018-07-14T02:19:45.322Z,16.66
2018-07-14T02:20:45.226Z,16.54
2018-07-14T02:21:45.139Z,16.56
2018-07-14T02:22:45.027Z,16.53
2018-07-14T02:23:44.936Z,16.53
2018-07-14T02:24:44.829Z,16.51
2018-07-14T02:25:44.736Z,16.47
2018-07-14T02:26:44.641Z,16.46
2018-07-14T02:27:44.550Z,16.42
2018-07-14T02:28:44.443Z,16.32
2018-07-14T02:29:44.353Z,16.33
2018-07-14T02:30:44.261Z,16.33
2018-07-14T02:31:44.155Z,16.36
2018-07-14T02:32:44.067Z,16.36
2018-07-14T02:33:43.967Z,16.31
2018-07-14T02:34:43.871Z,16.35
2018-07-14T02:35:44.019Z,16.36
2018-07-14T02:36:43.681Z,16.32
2018-07-14T02:37:43.578Z,16.38
2018-07-14T02:38:43.487Z,16.29
2018-07-14T02:39:43.382Z,16.29
2018-07-14T02:40:43.301Z,16.28
2018-07-14T02:41:43.184Z,16.33
2018-07-14T02:42:43.098Z,16.23
2018-07-14T02:43:43.006Z,16.29
2018-07-14T02:44:42.902Z,16.29
2018-07-14T02:45:43.100Z,16.26
2018-07-14T02:46:42.717Z,16.31
2018-07-14T02:47:42.605Z,16.23
2018-07-14T02:48:42.516Z,16.17
2018-07-14T02:49:42.414Z,16.17
2018-07-14T02:50:42.319Z,16.17
2018-07-14T02:51:42.214Z,16.17
2018-07-14T02:52:42.126Z,16.15
2018-07-14T02:53:42.024Z,16.24
2018-07-14T02:54:41.936Z,16.23
2018-07-14T02:55:41.832Z,16.17
2018-07-14T02:56:41.739Z,16.23
2018-07-14T02:57:41.652Z,16.23
2018-07-14T02:58:41.549Z,16.17
2018-07-14T02:59:41.458Z,16.13
2018-07-14T03:00:41.349Z,16.12
2018-07-14T03:01:41.245Z,16.12
2018-07-14T03:02:41.154Z,16.09
2018-07-14T03:03:41.060Z,16.05
2018-07-14T03:04:40.963Z,16.09
2018-07-14T03:05:40.864Z,16.08
2018-07-14T03:06:40.768Z,15.98
2018-07-14T03:07:40.678Z,15.98
2018-07-14T03:08:40.579Z,16.08
2018-07-14T03:09:40.478Z,16.02
2018-07-14T03:10:40.381Z,16.05
2018-07-14T03:11:40.289Z,16.00
2018-07-14T03:12:40.192Z,16.02
2018-07-14T03:13:40.080Z,16.02
2018-07-14T03:14:39.992Z,16.00
2018-07-14T03:15:39.913Z,16.09
2018-07-14T03:16:39.794Z,16.00
2018-07-14T03:17:39.741Z,16.05
2018-07-14T03:18:39.602Z,16.04
2018-07-14T03:19:39.511Z,16.00
2018-07-14T03:20:39.411Z,16.05
2018-07-14T03:21:39.309Z,15.98
2018-07-14T03:22:39.212Z,16.00
2018-07-14T03:23:39.110Z,16.02
2018-07-14T03:24:39.021Z,16.04
2018-07-14T03:25:38.919Z,15.97
2018-07-14T03:26:38.830Z,16.01
2018-07-14T03:27:38.738Z,16.10
2018-07-14T03:28:38.630Z,16.10
2018-07-14T03:29:38.528Z,16.12
2018-07-14T03:30:38.438Z,16.20
2018-07-14T03:31:38.345Z,16.15
2018-07-14T03:32:38.248Z,16.09
2018-07-14T03:33:38.147Z,16.17
2018-07-14T03:34:38.052Z,16.13
2018-07-14T03:35:37.959Z,16.15
2018-07-14T03:36:37.768Z,16.15
2018-07-14T03:37:37.677Z,16.08
2018-07-14T03:38:37.578Z,16.20
2018-07-14T03:39:37.486Z,16.17
2018-07-14T03:40:37.380Z,16.21
2018-07-14T03:41:37.288Z,16.24
2018-07-14T03:42:37.186Z,16.20
2018-07-14T03:43:37.091Z,16.20
2018-07-14T03:44:36.993Z,16.29
2018-07-14T03:45:37.152Z,16.17
2018-07-14T03:46:36.796Z,16.16
2018-07-14T03:47:36.703Z,16.28
2018-07-14T03:48:36.605Z,16.21
2018-07-14T03:49:36.514Z,16.17
2018-07-14T03:50:36.413Z,16.12
2018-07-14T03:51:36.321Z,16.16
2018-07-14T03:52:36.213Z,16.12
2018-07-14T03:53:36.123Z,16.08
2018-07-14T03:54:36.023Z,16.01
2018-07-14T03:55:35.931Z,15.97
2018-07-14T03:56:35.824Z,16.02
2018-07-14T03:57:35.735Z,16.09
2018-07-14T03:58:35.632Z,16.04
2018-07-14T03:59:35.541Z,16.08
2018-07-14T04:00:35.442Z,16.00
2018-07-14T04:01:35.351Z,15.98
2018-07-14T04:02:35.244Z,16.04
2018-07-14T04:03:35.158Z,16.00
2018-07-14T04:04:35.054Z,16.04
2018-07-14T04:05:34.964Z,16.00
2018-07-14T04:06:34.917Z,16.00
2018-07-14T04:07:34.766Z,16.00
2018-07-14T04:08:34.660Z,16.09
2018-07-14T04:09:34.569Z,16.08
2018-07-14T04:10:34.733Z,16.00
2018-07-14T04:11:34.380Z,16.05
2018-07-14T04:12:34.274Z,16.01
2018-07-14T04:13:34.188Z,16.10
2018-07-14T04:14:34.115Z,16.01
2018-07-14T04:15:33.986Z,15.97
2018-07-14T04:16:33.889Z,16.09
2018-07-14T04:17:33.798Z,16.00
2018-07-14T04:18:33.700Z,16.12
2018-07-14T04:19:33.597Z,16.10
2018-07-14T04:20:33.512Z,16.13
2018-07-14T04:21:33.411Z,16.12
2018-07-14T04:22:33.319Z,16.20
2018-07-14T04:23:33.215Z,16.24
2018-07-14T04:24:33.121Z,16.17
2018-07-14T04:25:33.017Z,16.16
2018-07-14T04:26:32.929Z,16.29
2018-07-14T04:27:32.824Z,16.17
2018-07-14T04:28:32.731Z,16.24
2018-07-14T04:29:32.628Z,16.38
2018-07-14T04:30:32.538Z,16.46
2018-07-14T04:31:32.449Z,16.50
2018-07-14T04:32:32.348Z,16.49
2018-07-14T04:33:32.245Z,16.57
2018-07-14T04:34:32.147Z,16.60
2018-07-14T04:35:32.045Z,16.72
2018-07-14T04:36:31.959Z,16.66
2018-07-14T04:37:31.855Z,16.78
2018-07-14T04:38:31.766Z,16.84
2018-07-14T04:39:31.675Z,16.91
2018-07-14T04:40:31.569Z,17.02
2018-07-14T04:41:31.476Z,17.16
2018-07-14T04:42:31.436Z,17.26
2018-07-14T04:43:31.285Z,17.27
2018-07-14T04:44:31.265Z,17.59
2018-07-14T04:45:31.174Z,17.85
2018-07-14T04:46:31.073Z,17.82
2018-07-14T04:47:30.982Z,17.79
2018-07-14T04:48:30.883Z,17.94
2018-07-14T04:49:30.792Z,18.07
2018-07-14T04:50:30.697Z,18.08
2018-07-14T04:51:30.594Z,18.15
2018-07-14T04:52:30.520Z,18.16
2018-07-14T04:53:30.403Z,18.26
2018-07-14T04:54:30.311Z,18.45
2018-07-14T04:55:30.223Z,18.10
2018-07-14T04:56:30.112Z,17.94
2018-07-14T04:57:30.023Z,18.10
2018-07-14T04:58:29.938Z,18.16
2018-07-14T04:59:29.833Z,18.26
2018-07-14T05:00:29.990Z,18.49
2018-07-14T05:01:29.636Z,18.58
2018-07-14T05:02:29.542Z,18.41
2018-07-14T05:03:29.455Z,18.44
2018-07-14T05:04:29.353Z,18.45
2018-07-14T05:05:29.264Z,18.62
2018-07-14T05:06:29.261Z,18.70
2018-07-14T05:07:29.079Z,18.77
2018-07-14T05:08:28.978Z,19.00
2018-07-14T05:09:28.890Z,19.52
2018-07-14T05:10:28.797Z,19.63
2018-07-14T05:11:28.694Z,19.55
2018-07-14T05:12:28.600Z,19.58
2018-07-14T05:13:28.508Z,19.74
2018-07-14T05:14:28.407Z,19.56
2018-07-14T05:15:28.319Z,19.44
2018-07-14T05:16:28.220Z,19.99
2018-07-14T05:17:28.135Z,19.71
2018-07-14T05:18:28.030Z,19.94
2018-07-14T05:19:27.939Z,20.11
2018-07-14T05:20:27.852Z,20.13
2018-07-14T05:21:27.847Z,20.24
2018-07-14T05:22:27.653Z,20.62
2018-07-14T05:23:27.563Z,20.93
2018-07-14T05:24:27.489Z,21.17
2018-07-14T05:25:27.386Z,21.25
2018-07-14T05:26:27.292Z,21.24
2018-07-14T05:27:27.188Z,21.51
2018-07-14T05:28:27.111Z,21.66
2018-07-14T05:29:27.002Z,21.55
2018-07-14T05:30:26.913Z,21.67
2018-07-14T05:31:26.827Z,21.46
2018-07-14T05:32:26.734Z,21.62
2018-07-14T05:33:26.630Z,21.48
2018-07-14T05:34:26.543Z,21.66
2018-07-14T05:35:26.446Z,21.82
2018-07-14T05:36:26.362Z,21.98
2018-07-14T05:37:26.268Z,21.98
2018-07-14T05:38:26.180Z,21.80
2018-07-14T05:39:26.088Z,22.07
2018-07-14T05:40:25.992Z,21.96
2018-07-14T05:41:25.901Z,21.51
2018-07-14T05:42:25.811Z,21.48
2018-07-14T05:43:25.725Z,21.88
2018-07-14T05:44:25.634Z,22.10
2018-07-14T05:45:25.537Z,22.47
2018-07-14T05:46:25.435Z,22.50
2018-07-14T05:47:25.345Z,21.96
2018-07-14T05:48:25.257Z,21.48
2018-07-14T05:49:25.165Z,21.67
2018-07-14T05:50:25.078Z,21.48
2018-07-14T05:51:24.986Z,21.36
2018-07-14T05:52:24.892Z,21.17
2018-07-14T05:53:24.801Z,21.17
2018-07-14T05:54:24.714Z,21.29
2018-07-14T05:55:24.623Z,21.24
2018-07-14T05:56:24.527Z,21.43
2018-07-14T05:57:24.437Z,21.79
2018-07-14T05:58:24.344Z,22.10
2018-07-14T05:59:24.253Z,22.29
2018-07-14T06:00:24.170Z,22.60
2018-07-14T06:01:24.077Z,22.83
2018-07-14T06:02:23.985Z,23.09
2018-07-14T06:03:23.891Z,22.96
2018-07-14T06:04:23.806Z,23.00
2018-07-14T06:05:24.015Z,22.94
2018-07-14T06:06:23.622Z,23.03
2018-07-14T06:07:23.532Z,23.17
2018-07-14T06:08:23.450Z,23.08
2018-07-14T06:09:23.358Z,23.00
2018-07-14T06:10:23.270Z,22.54
2018-07-14T06:11:23.181Z,23.12
2018-07-14T06:12:23.084Z,23.48
2018-07-14T06:13:22.994Z,23.58
2018-07-14T06:14:22.905Z,22.50
2018-07-14T06:15:22.816Z,22.73
2018-07-14T06:16:22.727Z,22.22
2018-07-14T06:17:22.705Z,22.22
2018-07-14T06:18:22.554Z,22.47
2018-07-14T06:19:22.461Z,23.08
2018-07-14T06:20:22.378Z,23.65
2018-07-14T06:21:22.283Z,23.48
2018-07-14T06:22:22.196Z,23.95
2018-07-14T06:23:22.104Z,24.16
2018-07-14T06:24:22.011Z,23.08
2018-07-14T06:25:21.925Z,23.05
2018-07-14T06:26:21.833Z,23.51
2018-07-14T06:27:21.754Z,23.71
2018-07-14T06:28:21.658Z,23.62
2018-07-14T06:29:21.569Z,23.37
2018-07-14T06:30:21.477Z,22.66
2018-07-14T06:31:21.385Z,21.95
2018-07-14T06:32:21.298Z,21.93
2018-07-14T06:33:21.207Z,21.95
2018-07-14T06:34:21.116Z,22.00
2018-07-14T06:35:21.091Z,22.20
2018-07-14T06:36:20.950Z,22.04
2018-07-14T06:37:20.859Z,21.43
2018-07-14T06:38:20.828Z,21.48
2018-07-14T06:39:20.675Z,21.77
2018-07-14T06:40:20.581Z,22.98
2018-07-14T06:41:20.494Z,23.55
2018-07-14T06:42:20.416Z,24.05
2018-07-14T06:43:20.327Z,24.47
2018-07-14T06:44:20.232Z,24.14
2018-07-14T06:45:20.141Z,23.48
2018-07-14T06:46:20.047Z,23.03
2018-07-14T06:47:19.957Z,23.32
2018-07-14T06:48:19.883Z,23.76
2018-07-14T06:49:19.792Z,24.06
2018-07-14T06:50:19.700Z,24.42
2018-07-14T06:51:19.610Z,23.98
2018-07-14T06:52:19.522Z,23.87
2018-07-14T06:53:19.430Z,24.08
2018-07-14T06:54:19.385Z,24.42
2018-07-14T06:55:19.260Z,24.54
2018-07-14T06:56:19.156Z,24.53
2018-07-14T06:57:19.073Z,24.92
2018-07-14T06:58:18.987Z,25.14
2018-07-14T06:59:18.896Z,25.36
2018-07-14T07:00:18.819Z,25.84
2018-07-14T07:01:18.728Z,26.02
2018-07-14T07:02:18.634Z,26.37
2018-07-14T07:03:18.548Z,26.05
2018-07-14T07:04:18.470Z,26.09
2018-07-14T07:05:18.383Z,26.40
2018-07-14T07:06:18.282Z,26.22
2018-07-14T07:07:18.191Z,26.19
2018-07-14T07:08:18.117Z,26.16
2018-07-14T07:09:18.028Z,25.91
2018-07-14T07:10:17.938Z,25.93
2018-07-14T07:11:17.858Z,25.11
2018-07-14T07:12:17.767Z,25.01
2018-07-14T07:13:17.677Z,25.03
2018-07-14T07:14:17.588Z,25.59
2018-07-14T07:15:17.508Z,26.09
2018-07-14T07:16:17.414Z,26.22
2018-07-14T07:17:17.323Z,25.98
2018-07-14T07:18:17.241Z,26.16
2018-07-14T07:19:17.151Z,26.29
2018-07-14T07:20:17.066Z,26.23
2018-07-14T07:21:17.045Z,26.47
2018-07-14T07:22:16.893Z,26.58
2018-07-14T07:23:16.849Z,26.77
2018-07-14T07:24:16.728Z,25.85
2018-07-14T07:25:16.638Z,26.09
2018-07-14T07:26:16.557Z,25.65
2018-07-14T07:27:16.479Z,25.98
2018-07-14T07:28:16.384Z,25.07
2018-07-14T07:29:16.294Z,25.40
2018-07-14T07:30:16.206Z,25.50
2018-07-14T07:31:16.140Z,25.55
2018-07-14T07:32:16.034Z,25.28
2018-07-14T07:33:15.956Z,25.25
2018-07-14T07:34:15.865Z,25.31
2018-07-14T07:35:15.787Z,25.26
2018-07-14T07:36:15.704Z,25.13
2018-07-14T07:37:15.610Z,24.99
2018-07-14T07:38:15.525Z,25.58
2018-07-14T07:39:15.435Z,25.78
2018-07-14T07:40:15.366Z,25.65
2018-07-14T07:41:15.269Z,25.51
2018-07-14T07:42:15.230Z,25.41
2018-07-14T07:43:15.156Z,25.44
2018-07-14T07:44:15.008Z,25.63
2018-07-14T07:45:14.929Z,25.91
2018-07-14T07:46:14.838Z,26.10
2018-07-14T07:47:14.760Z,25.96
2018-07-14T07:48:14.674Z,25.99
2018-07-14T07:49:14.595Z,26.07
2018-07-14T07:50:14.503Z,25.70
2018-07-14T07:51:14.412Z,24.98
2018-07-14T07:52:14.331Z,25.10
2018-07-14T07:53:14.239Z,24.88
2018-07-14T07:54:14.168Z,24.93
2018-07-14T07:55:14.075Z,25.01
2018-07-14T07:56:13.993Z,24.55
2018-07-14T07:57:13.903Z,24.48
2018-07-14T07:58:13.809Z,24.65
2018-07-14T07:59:13.732Z,25.01
2018-07-14T08:00:13.645Z,24.85
2018-07-14T08:01:13.571Z,24.98
2018-07-14T08:02:13.470Z,24.99
2018-07-14T08:03:13.391Z,25.06
2018-07-14T08:04:13.306Z,25.04
2018-07-14T08:05:13.215Z,24.81
2018-07-14T08:06:13.138Z,25.21
2018-07-14T08:07:13.049Z,25.65
2018-07-14T08:08:12.965Z,26.10
2018-07-14T08:09:12.875Z,26.26
2018-07-14T08:10:12.799Z,26.23
2018-07-14T08:11:12.708Z,26.07
2018-07-14T08:12:12.613Z,26.00
2018-07-14T08:13:12.534Z,25.48
2018-07-14T08:14:12.447Z,25.68
2018-07-14T08:15:12.369Z,25.50
2018-07-14T08:16:12.302Z,25.48
2018-07-14T08:17:12.190Z,25.60
2018-07-14T08:18:12.111Z,25.91
2018-07-14T08:19:12.017Z,25.23
2018-07-14T08:20:12.180Z,25.65
2018-07-14T08:21:11.840Z,25.87
2018-07-14T08:22:11.759Z,25.88
2018-07-14T08:23:11.774Z,25.31
2018-07-14T08:24:11.573Z,24.61
2018-07-14T08:25:11.498Z,24.78
2018-07-14T08:26:11.410Z,24.66
2018-07-14T08:27:11.318Z,24.70
2018-07-14T08:28:11.225Z,24.73
2018-07-14T08:29:11.133Z,24.48
2018-07-14T08:30:11.054Z,24.14
2018-07-14T08:31:10.962Z,23.61
2018-07-14T08:32:10.875Z,23.56
2018-07-14T08:33:10.786Z,23.25
2018-07-14T08:34:10.689Z,23.40
2018-07-14T08:35:10.602Z,23.24
2018-07-14T08:36:10.512Z,23.40
2018-07-14T08:37:10.423Z,23.76
2018-07-14T08:38:10.416Z,23.58
2018-07-14T08:39:10.242Z,23.92
2018-07-14T08:40:10.148Z,24.36
2018-07-14T08:41:10.056Z,24.68
2018-07-14T08:42:09.967Z,25.01
2018-07-14T08:43:09.880Z,25.44
2018-07-14T08:44:09.782Z,25.68
2018-07-14T08:45:09.691Z,25.62
2018-07-14T08:46:09.601Z,25.72
2018-07-14T08:47:09.514Z,26.05
2018-07-14T08:48:09.425Z,26.23
2018-07-14T08:49:09.335Z,26.81
2018-07-14T08:50:09.236Z,26.88
2018-07-14T08:51:09.208Z,26.73
2018-07-14T08:52:09.059Z,26.43
2018-07-14T08:53:08.969Z,26.93
2018-07-14T08:54:08.879Z,26.95
2018-07-14T08:55:08.789Z,26.85
2018-07-14T08:56:08.694Z,26.62
2018-07-14T08:57:08.605Z,26.56
2018-07-14T08:58:08.539Z,25.98
2018-07-14T08:59:08.436Z,26.18
2018-07-14T09:00:08.371Z,26.26
2018-07-14T09:01:08.250Z,26.05
2018-07-14T09:02:08.163Z,26.38
2018-07-14T09:03:08.083Z,26.60
2018-07-14T09:04:07.996Z,26.51
2018-07-14T09:05:07.907Z,26.51
2018-07-14T09:06:07.824Z,26.28
2018-07-14T09:07:07.732Z,25.41
2018-07-14T09:08:07.646Z,25.01
2018-07-14T09:09:07.571Z,25.18
2018-07-14T09:10:07.474Z,25.70
2018-07-14T09:11:07.396Z,25.26
2018-07-14T09:12:07.303Z,25.48
2018-07-14T09:13:07.210Z,25.69
2018-07-14T09:14:07.138Z,25.62
2018-07-14T09:15:07.049Z,25.80
2018-07-14T09:16:06.966Z,25.58
2018-07-14T09:17:06.875Z,25.50
2018-07-14T09:18:06.793Z,25.60
2018-07-14T09:19:06.703Z,26.00
2018-07-14T09:20:06.879Z,26.34
2018-07-14T09:21:06.551Z,26.25
2018-07-14T09:22:06.469Z,26.19
2018-07-14T09:23:06.369Z,26.55
2018-07-14T09:24:06.292Z,26.36
2018-07-14T09:25:06.201Z,26.70
2018-07-14T09:26:06.189Z,26.92
2018-07-14T09:27:06.035Z,26.97
2018-07-14T09:28:05.951Z,27.54
2018-07-14T09:29:05.859Z,27.12
2018-07-14T09:30:05.784Z,27.49
2018-07-14T09:31:05.694Z,27.73
2018-07-14T09:32:05.611Z,27.52
2018-07-14T09:33:05.534Z,27.51
2018-07-14T09:34:05.446Z,27.68
2018-07-14T09:35:05.365Z,27.83
2018-07-14T09:36:05.280Z,27.59
2018-07-14T09:37:05.201Z,27.47
2018-07-14T09:38:05.172Z,26.66
2018-07-14T09:39:05.028Z,26.62
2018-07-14T09:40:05.211Z,26.58
2018-07-14T09:41:04.876Z,26.70
2018-07-14T09:42:04.782Z,26.70
2018-07-14T09:43:04.704Z,26.85
2018-07-14T09:44:04.666Z,26.84
2018-07-14T09:45:04.531Z,26.99
2018-07-14T09:46:04.458Z,26.96
2018-07-14T09:47:04.380Z,27.08
2018-07-14T09:48:04.285Z,27.05
2018-07-14T09:49:04.208Z,27.36
2018-07-14T09:50:04.127Z,27.82
2018-07-14T09:51:04.037Z,28.02
2018-07-14T09:52:03.961Z,28.17
2018-07-14T09:53:03.890Z,27.71
2018-07-14T09:54:03.806Z,27.95
2018-07-14T09:55:03.716Z,27.90
2018-07-14T09:56:03.634Z,27.22
2018-07-14T09:57:03.555Z,27.08
2018-07-14T09:58:03.464Z,27.37
2018-07-14T09:59:03.383Z,27.73
2018-07-14T10:00:03.310Z,28.00
2018-07-14T10:01:03.231Z,27.42
2018-07-14T10:02:03.140Z,27.51
2018-07-14T10:03:03.061Z,27.51
2018-07-14T10:04:02.987Z,27.59
2018-07-14T10:05:02.909Z,26.95
2018-07-14T10:06:02.878Z,26.97
2018-07-14T10:07:02.750Z,26.74
2018-07-14T10:08:02.655Z,27.45
2018-07-14T10:09:02.575Z,27.21
2018-07-14T10:10:02.561Z,26.80
2018-07-14T10:11:02.414Z,26.51
2018-07-14T10:12:02.329Z,26.28
2018-07-14T10:13:02.270Z,26.73
2018-07-14T10:14:02.162Z,26.95
2018-07-14T10:15:02.180Z,27.42
2018-07-14T10:16:02.019Z,27.90
2018-07-14T10:17:01.930Z,28.41
2018-07-14T10:18:01.834Z,28.35
2018-07-14T10:19:01.759Z,28.19
2018-07-14T10:20:01.688Z,27.89
2018-07-14T10:21:01.603Z,28.14
2018-07-14T10:22:01.515Z,28.27
2018-07-14T10:23:01.437Z,28.19
2018-07-14T10:24:01.352Z,28.51
2018-07-14T10:25:01.323Z,27.98
2018-07-14T10:26:01.303Z,27.92
2018-07-14T10:27:01.123Z,27.54
2018-07-14T10:28:01.028Z,27.77
2018-07-14T10:29:01.015Z,27.73
2018-07-14T10:30:01.119Z,28.05
2018-07-14T10:31:00.791Z,28.15
2018-07-14T10:32:00.717Z,28.38
2018-07-14T10:33:00.637Z,27.42
2018-07-14T10:34:00.556Z,27.12
2018-07-14T10:35:00.466Z,26.60
2018-07-14T10:36:00.394Z,26.83
2018-07-14T10:37:00.314Z,26.83
2018-07-14T10:38:00.232Z,26.25
2018-07-14T10:39:00.155Z,25.65
2018-07-14T10:40:00.073Z,25.96
2018-07-14T10:40:59.994Z,26.15
2018-07-14T10:41:59.972Z,25.96
2018-07-14T10:42:59.842Z,25.93
2018-07-14T10:43:59.747Z,25.70
2018-07-14T10:44:59.669Z,25.68
2018-07-14T10:45:59.594Z,26.05
2018-07-14T10:46:59.518Z,26.22
2018-07-14T10:47:59.440Z,26.51
2018-07-14T10:48:59.362Z,26.58
2018-07-14T10:49:59.277Z,26.52
2018-07-14T10:50:59.199Z,26.13
2018-07-14T10:51:59.125Z,26.23
2018-07-14T10:52:59.047Z,26.28
2018-07-14T10:53:58.959Z,26.77
2018-07-14T10:54:58.880Z,27.40
2018-07-14T10:55:58.796Z,27.35
2018-07-14T10:56:58.721Z,27.51
2018-07-14T10:57:58.644Z,27.58
2018-07-14T10:58:58.563Z,28.23
2018-07-14T10:59:58.481Z,28.47
2018-07-14T11:00:58.403Z,28.44
2018-07-14T11:01:58.316Z,29.12
2018-07-14T11:02:58.236Z,29.82
2018-07-14T11:03:58.163Z,29.95
2018-07-14T11:04:58.084Z,30.15
2018-07-14T11:05:58.000Z,30.35
2018-07-14T11:06:57.921Z,30.27
2018-07-14T11:07:57.847Z,30.80
2018-07-14T11:08:57.756Z,30.43
2018-07-14T11:09:57.679Z,30.31
2018-07-14T11:10:57.601Z,30.40
2018-07-14T11:11:57.521Z,30.46
2018-07-14T11:12:57.440Z,30.32
2018-07-14T11:13:57.365Z,30.28
2018-07-14T11:14:57.288Z,29.91
2018-07-14T11:15:57.205Z,30.10
2018-07-14T11:16:57.115Z,30.09
2018-07-14T11:17:57.132Z,29.16
2018-07-14T11:18:56.957Z,29.01
2018-07-14T11:19:57.133Z,29.01
2018-07-14T11:20:56.803Z,28.82
2018-07-14T11:21:56.725Z,28.93
2018-07-14T11:22:56.646Z,29.27
2018-07-14T11:23:56.572Z,28.86
2018-07-14T11:24:56.481Z,28.89
2018-07-14T11:25:56.399Z,29.01
2018-07-14T11:26:56.323Z,29.14
2018-07-14T11:27:56.238Z,29.26
2018-07-14T11:28:56.160Z,29.14
2018-07-14T11:29:56.086Z,28.42
2018-07-14T11:30:56.008Z,28.30
2018-07-14T11:31:55.925Z,28.38
2018-07-14T11:32:55.835Z,28.62
2018-07-14T11:33:55.759Z,28.08
2018-07-14T11:34:55.681Z,28.23
2018-07-14T11:35:55.519Z,28.44
2018-07-14T11:36:55.441Z,28.39
2018-07-14T11:37:55.356Z,27.58
2018-07-14T11:38:55.353Z,27.35
2018-07-14T11:39:55.291Z,27.40
2018-07-14T11:40:55.205Z,27.78
2018-07-14T11:41:55.123Z,28.12
2018-07-14T11:42:55.047Z,28.04
2018-07-14T11:43:54.964Z,28.07
2018-07-14T11:44:54.884Z,28.19
2018-07-14T11:45:54.802Z,28.22
2018-07-14T11:46:54.720Z,27.95
2018-07-14T11:47:54.646Z,27.40
2018-07-14T11:48:54.547Z,27.33
2018-07-14T11:49:54.467Z,27.37
2018-07-14T11:50:54.386Z,27.60
2018-07-14T11:51:54.315Z,28.10
2018-07-14T11:52:54.223Z,28.10
2018-07-14T11:53:54.142Z,27.44
2018-07-14T11:54:54.065Z,27.42
2018-07-14T11:55:53.976Z,27.32
2018-07-14T11:56:53.903Z,27.08
2018-07-14T11:57:53.809Z,27.08
2018-07-14T11:58:53.728Z,26.99
2018-07-14T11:59:53.883Z,26.48
2018-07-14T12:00:53.556Z,26.16
2018-07-14T12:01:53.504Z,26.36
2018-07-14T12:02:53.385Z,26.63
2018-07-14T12:03:53.298Z,26.96
2018-07-14T12:04:53.220Z,26.78
2018-07-14T12:05:53.131Z,27.18
2018-07-14T12:06:53.040Z,27.51
2018-07-14T12:07:52.957Z,27.30
2018-07-14T12:08:52.868Z,26.37
2018-07-14T12:09:52.778Z,25.73
2018-07-14T12:10:52.701Z,25.58
2018-07-14T12:11:52.605Z,25.43
2018-07-14T12:12:52.519Z,25.17
2018-07-14T12:13:52.433Z,25.07
2018-07-14T12:14:52.348Z,24.88
2018-07-14T12:15:52.274Z,24.65
2018-07-14T12:16:52.182Z,24.74
2018-07-14T12:17:52.113Z,24.50
2018-07-14T12:18:52.010Z,24.29
2018-07-14T12:19:52.185Z,24.30
2018-07-14T12:20:51.845Z,24.17
2018-07-14T12:21:51.776Z,24.11
2018-07-14T12:22:51.685Z,23.93
2018-07-14T12:23:51.594Z,23.62
2018-07-14T12:24:51.514Z,23.39
2018-07-14T12:25:51.428Z,23.37
2018-07-14T12:26:51.434Z,23.36
2018-07-14T12:27:51.256Z,23.50
2018-07-14T12:28:51.181Z,23.56
2018-07-14T12:29:51.097Z,23.68
2018-07-14T12:30:51.011Z,23.74
2018-07-14T12:31:50.919Z,23.96
2018-07-14T12:32:50.829Z,24.01
2018-07-14T12:33:50.745Z,24.03
2018-07-14T12:34:50.667Z,23.93
2018-07-14T12:35:50.569Z,23.99
2018-07-14T12:36:50.489Z,24.10
2018-07-14T12:37:50.402Z,23.95
2018-07-14T12:38:50.310Z,24.01
2018-07-14T12:39:50.227Z,23.96
2018-07-14T12:40:50.139Z,23.74
2018-07-14T12:41:50.048Z,23.81
2018-07-14T12:42:49.958Z,23.65
2018-07-14T12:43:49.864Z,23.68
2018-07-14T12:44:49.784Z,23.62
2018-07-14T12:45:49.696Z,23.58
2018-07-14T12:46:49.605Z,23.43
2018-07-14T12:47:49.519Z,23.44
2018-07-14T12:48:49.427Z,23.25
2018-07-14T12:49:49.333Z,23.37
2018-07-14T12:50:49.255Z,23.34
2018-07-14T12:51:49.167Z,23.48